sensor_id;sensor_type;location;lat;lon;timestamp;P1;durP1;ratioP1;P2;durP2;ratioP2
25213;SDS011;13160;51.834;4.706;2022-12-18T00:00:09;102.10;;;38.90;;
25213;SDS011;13160;51.834;4.706;2022-12-18T00:02:39;113.20;;;39.05;;
25213;SDS011;13160;51.834;4.706;2022-12-18T00:05:08;105.90;;;38.53;;
25213;SDS011;13160;51.834;4.706;2022-12-18T00:07:36;109.35;;;39.55;;
25213;SDS011;13160;51.834;4.706;2022-12-18T00:10:05;109.82;;;39.70;;
25213;SDS011;13160;51.834;4.706;2022-12-18T00:12:36;102.88;;;36.83;;
25213;SDS011;13160;51.834;4.706;2022-12-18T00:15:05;99.85;;;36.72;;
25213;SDS011;13160;51.834;4.706;2022-12-18T00:17:34;103.05;;;38.22;;
25213;SDS011;13160;51.834;4.706;2022-12-18T00:20:03;101.28;;;38.40;;
25213;SDS011;13160;51.834;4.706;2022-12-18T00:22:32;104.13;;;38.38;;
25213;SDS011;13160;51.834;4.706;2022-12-18T00:25:01;108.65;;;41.45;;
25213;SDS011;13160;51.834;4.706;2022-12-18T00:27:30;108.43;;;41.35;;
25213;SDS011;13160;51.834;4.706;2022-12-18T00:30:00;114.03;;;40.10;;
25213;SDS011;13160;51.834;4.706;2022-12-18T00:32:29;97.88;;;39.10;;
25213;SDS011;13160;51.834;4.706;2022-12-18T00:34:57;101.90;;;39.05;;
25213;SDS011;13160;51.834;4.706;2022-12-18T00:37:26;104.57;;;39.22;;
25213;SDS011;13160;51.834;4.706;2022-12-18T00:39:54;101.43;;;39.05;;
25213;SDS011;13160;51.834;4.706;2022-12-18T00:42:23;107.65;;;37.33;;
25213;SDS011;13160;51.834;4.706;2022-12-18T00:45:10;108.53;;;39.63;;
25213;SDS011;13160;51.834;4.706;2022-12-18T00:47:39;106.05;;;37.00;;
25213;SDS011;13160;51.834;4.706;2022-12-18T00:50:08;99.53;;;37.33;;
25213;SDS011;13160;51.834;4.706;2022-12-18T00:52:38;101.70;;;37.22;;
25213;SDS011;13160;51.834;4.706;2022-12-18T00:55:07;94.22;;;37.03;;
25213;SDS011;13160;51.834;4.706;2022-12-18T00:57:36;97.20;;;35.17;;
25213;SDS011;13160;51.834;4.706;2022-12-18T01:00:06;93.55;;;35.30;;
25213;SDS011;13160;51.834;4.706;2022-12-18T01:02:40;93.70;;;36.17;;
25213;SDS011;13160;51.834;4.706;2022-12-18T01:05:09;90.78;;;35.30;;
25213;SDS011;13160;51.834;4.706;2022-12-18T01:07:40;92.15;;;35.90;;
25213;SDS011;13160;51.834;4.706;2022-12-18T01:10:09;92.95;;;36.92;;
25213;SDS011;13160;51.834;4.706;2022-12-18T01:12:40;87.38;;;35.72;;
25213;SDS011;13160;51.834;4.706;2022-12-18T01:15:09;88.75;;;35.78;;
25213;SDS011;13160;51.834;4.706;2022-12-18T01:17:41;82.18;;;34.63;;
25213;SDS011;13160;51.834;4.706;2022-12-18T01:20:10;87.88;;;34.92;;
25213;SDS011;13160;51.834;4.706;2022-12-18T01:22:41;92.90;;;34.72;;
25213;SDS011;13160;51.834;4.706;2022-12-18T01:25:09;86.57;;;33.20;;
25213;SDS011;13160;51.834;4.706;2022-12-18T01:27:37;79.90;;;33.67;;
25213;SDS011;13160;51.834;4.706;2022-12-18T01:30:06;100.07;;;37.03;;
25213;SDS011;13160;51.834;4.706;2022-12-18T01:32:36;87.18;;;33.65;;
25213;SDS011;13160;51.834;4.706;2022-12-18T01:35:07;85.53;;;34.45;;
25213;SDS011;13160;51.834;4.706;2022-12-18T01:37:36;87.07;;;33.72;;
25213;SDS011;13160;51.834;4.706;2022-12-18T01:40:05;84.55;;;33.92;;
25213;SDS011;13160;51.834;4.706;2022-12-18T01:42:36;94.13;;;34.63;;
25213;SDS011;13160;51.834;4.706;2022-12-18T01:45:05;91.35;;;33.78;;
25213;SDS011;13160;51.834;4.706;2022-12-18T01:47:52;78.20;;;31.38;;
25213;SDS011;13160;51.834;4.706;2022-12-18T01:50:25;80.30;;;31.95;;
25213;SDS011;13160;51.834;4.706;2022-12-18T01:53:00;88.05;;;34.30;;
25213;SDS011;13160;51.834;4.706;2022-12-18T01:55:35;82.30;;;31.88;;
25213;SDS011;13160;51.834;4.706;2022-12-18T01:58:07;78.63;;;31.58;;
25213;SDS011;13160;51.834;4.706;2022-12-18T02:00:37;84.78;;;32.58;;
25213;SDS011;13160;51.834;4.706;2022-12-18T02:03:06;86.25;;;33.85;;
25213;SDS011;13160;51.834;4.706;2022-12-18T02:05:39;96.75;;;35.95;;
25213;SDS011;13160;51.834;4.706;2022-12-18T02:08:13;82.47;;;32.75;;
25213;SDS011;13160;51.834;4.706;2022-12-18T02:10:48;91.22;;;33.05;;
25213;SDS011;13160;51.834;4.706;2022-12-18T02:13:28;88.88;;;33.40;;
25213;SDS011;13160;51.834;4.706;2022-12-18T02:16:07;84.68;;;34.03;;
25213;SDS011;13160;51.834;4.706;2022-12-18T02:18:47;90.90;;;34.40;;
25213;SDS011;13160;51.834;4.706;2022-12-18T02:21:23;86.45;;;32.30;;
25213;SDS011;13160;51.834;4.706;2022-12-18T02:24:04;102.88;;;34.65;;
25213;SDS011;13160;51.834;4.706;2022-12-18T02:26:48;96.78;;;36.78;;
25213;SDS011;13160;51.834;4.706;2022-12-18T02:29:20;91.63;;;35.00;;
25213;SDS011;13160;51.834;4.706;2022-12-18T02:31:54;88.75;;;35.33;;
25213;SDS011;13160;51.834;4.706;2022-12-18T02:34:26;97.00;;;35.08;;
25213;SDS011;13160;51.834;4.706;2022-12-18T02:36:57;93.68;;;35.47;;
25213;SDS011;13160;51.834;4.706;2022-12-18T02:39:29;91.88;;;34.00;;
25213;SDS011;13160;51.834;4.706;2022-12-18T02:42:01;86.47;;;33.30;;
25213;SDS011;13160;51.834;4.706;2022-12-18T02:44:34;80.30;;;33.83;;
25213;SDS011;13160;51.834;4.706;2022-12-18T02:47:08;89.75;;;33.47;;
25213;SDS011;13160;51.834;4.706;2022-12-18T02:49:41;87.50;;;32.65;;
25213;SDS011;13160;51.834;4.706;2022-12-18T02:52:22;96.30;;;32.63;;
25213;SDS011;13160;51.834;4.706;2022-12-18T02:54:59;78.60;;;31.33;;
25213;SDS011;13160;51.834;4.706;2022-12-18T02:57:42;82.80;;;32.42;;
25213;SDS011;13160;51.834;4.706;2022-12-18T03:00:17;80.15;;;31.70;;
25213;SDS011;13160;51.834;4.706;2022-12-18T03:02:51;87.13;;;32.92;;
25213;SDS011;13160;51.834;4.706;2022-12-18T03:05:29;80.15;;;32.53;;
25213;SDS011;13160;51.834;4.706;2022-12-18T03:08:03;84.78;;;30.38;;
25213;SDS011;13160;51.834;4.706;2022-12-18T03:10:37;89.13;;;33.35;;
25213;SDS011;13160;51.834;4.706;2022-12-18T03:13:13;71.97;;;29.88;;
25213;SDS011;13160;51.834;4.706;2022-12-18T03:15:48;74.65;;;32.65;;
25213;SDS011;13160;51.834;4.706;2022-12-18T03:18:21;78.05;;;30.77;;
25213;SDS011;13160;51.834;4.706;2022-12-18T03:20:55;80.35;;;30.65;;
25213;SDS011;13160;51.834;4.706;2022-12-18T03:23:29;79.97;;;31.65;;
25213;SDS011;13160;51.834;4.706;2022-12-18T03:26:05;82.40;;;31.10;;
25213;SDS011;13160;51.834;4.706;2022-12-18T03:28:40;73.70;;;30.20;;
25213;SDS011;13160;51.834;4.706;2022-12-18T03:31:13;71.15;;;29.10;;
25213;SDS011;13160;51.834;4.706;2022-12-18T03:33:43;74.25;;;29.23;;
25213;SDS011;13160;51.834;4.706;2022-12-18T03:36:15;75.13;;;28.17;;
25213;SDS011;13160;51.834;4.706;2022-12-18T03:38:44;65.40;;;27.08;;
25213;SDS011;13160;51.834;4.706;2022-12-18T03:41:15;76.95;;;29.38;;
25213;SDS011;13160;51.834;4.706;2022-12-18T03:43:51;68.97;;;28.40;;
25213;SDS011;13160;51.834;4.706;2022-12-18T03:46:26;65.25;;;26.65;;
25213;SDS011;13160;51.834;4.706;2022-12-18T03:49:01;63.58;;;26.20;;
25213;SDS011;13160;51.834;4.706;2022-12-18T03:51:37;69.10;;;26.50;;
25213;SDS011;13160;51.834;4.706;2022-12-18T03:54:11;68.95;;;27.73;;
25213;SDS011;13160;51.834;4.706;2022-12-18T03:56:42;65.85;;;26.73;;
25213;SDS011;13160;51.834;4.706;2022-12-18T03:59:15;60.88;;;24.73;;
25213;SDS011;13160;51.834;4.706;2022-12-18T04:01:46;58.58;;;24.45;;
25213;SDS011;13160;51.834;4.706;2022-12-18T04:04:17;64.20;;;26.13;;
25213;SDS011;13160;51.834;4.706;2022-12-18T04:06:46;65.97;;;24.38;;
25213;SDS011;13160;51.834;4.706;2022-12-18T04:09:17;57.25;;;25.45;;
25213;SDS011;13160;51.834;4.706;2022-12-18T04:11:47;61.65;;;25.38;;
25213;SDS011;13160;51.834;4.706;2022-12-18T04:14:17;62.97;;;26.52;;
25213;SDS011;13160;51.834;4.706;2022-12-18T04:16:46;64.30;;;25.67;;
25213;SDS011;13160;51.834;4.706;2022-12-18T04:19:14;57.53;;;23.85;;
25213;SDS011;13160;51.834;4.706;2022-12-18T04:21:42;62.63;;;25.58;;
25213;SDS011;13160;51.834;4.706;2022-12-18T04:24:11;69.25;;;27.25;;
25213;SDS011;13160;51.834;4.706;2022-12-18T04:26:39;58.85;;;24.83;;
25213;SDS011;13160;51.834;4.706;2022-12-18T04:29:07;59.85;;;23.90;;
25213;SDS011;13160;51.834;4.706;2022-12-18T04:31:37;56.42;;;24.27;;
25213;SDS011;13160;51.834;4.706;2022-12-18T04:34:06;52.05;;;22.92;;
25213;SDS011;13160;51.834;4.706;2022-12-18T04:36:35;58.47;;;24.77;;
25213;SDS011;13160;51.834;4.706;2022-12-18T04:39:03;62.33;;;24.50;;
25213;SDS011;13160;51.834;4.706;2022-12-18T04:41:31;56.38;;;23.80;;
25213;SDS011;13160;51.834;4.706;2022-12-18T04:44:00;55.67;;;23.75;;
25213;SDS011;13160;51.834;4.706;2022-12-18T04:46:28;48.50;;;21.58;;
25213;SDS011;13160;51.834;4.706;2022-12-18T04:48:58;54.47;;;24.13;;
25213;SDS011;13160;51.834;4.706;2022-12-18T04:51:27;57.55;;;22.52;;
25213;SDS011;13160;51.834;4.706;2022-12-18T04:53:55;55.25;;;22.58;;
25213;SDS011;13160;51.834;4.706;2022-12-18T04:56:24;56.67;;;23.20;;
25213;SDS011;13160;51.834;4.706;2022-12-18T04:58:52;60.30;;;24.25;;
25213;SDS011;13160;51.834;4.706;2022-12-18T05:01:20;53.30;;;23.23;;
25213;SDS011;13160;51.834;4.706;2022-12-18T05:03:53;50.72;;;22.27;;
25213;SDS011;13160;51.834;4.706;2022-12-18T05:06:23;48.20;;;20.70;;
25213;SDS011;13160;51.834;4.706;2022-12-18T05:08:51;47.70;;;21.35;;
25213;SDS011;13160;51.834;4.706;2022-12-18T05:11:20;46.67;;;21.35;;
25213;SDS011;13160;51.834;4.706;2022-12-18T05:13:49;49.17;;;21.80;;
25213;SDS011;13160;51.834;4.706;2022-12-18T05:16:17;52.15;;;20.85;;
25213;SDS011;13160;51.834;4.706;2022-12-18T05:18:46;51.05;;;20.88;;
25213;SDS011;13160;51.834;4.706;2022-12-18T05:21:14;50.28;;;21.80;;
25213;SDS011;13160;51.834;4.706;2022-12-18T05:23:44;44.80;;;21.05;;
25213;SDS011;13160;51.834;4.706;2022-12-18T05:26:14;44.70;;;20.15;;
25213;SDS011;13160;51.834;4.706;2022-12-18T05:28:44;51.60;;;19.58;;
25213;SDS011;13160;51.834;4.706;2022-12-18T05:31:13;38.50;;;18.58;;
25213;SDS011;13160;51.834;4.706;2022-12-18T05:33:42;48.53;;;19.67;;
25213;SDS011;13160;51.834;4.706;2022-12-18T05:36:10;41.60;;;19.48;;
25213;SDS011;13160;51.834;4.706;2022-12-18T05:38:39;45.75;;;18.70;;
25213;SDS011;13160;51.834;4.706;2022-12-18T05:41:09;42.10;;;17.17;;
25213;SDS011;13160;51.834;4.706;2022-12-18T05:43:38;41.10;;;18.42;;
25213;SDS011;13160;51.834;4.706;2022-12-18T05:46:10;40.47;;;18.25;;
25213;SDS011;13160;51.834;4.706;2022-12-18T05:48:41;39.05;;;18.58;;
25213;SDS011;13160;51.834;4.706;2022-12-18T05:51:10;42.97;;;18.73;;
25213;SDS011;13160;51.834;4.706;2022-12-18T05:53:41;41.35;;;17.08;;
25213;SDS011;13160;51.834;4.706;2022-12-18T05:56:12;41.53;;;18.38;;
25213;SDS011;13160;51.834;4.706;2022-12-18T05:58:43;41.15;;;19.88;;
25213;SDS011;13160;51.834;4.706;2022-12-18T06:01:13;36.00;;;17.95;;
25213;SDS011;13160;51.834;4.706;2022-12-18T06:03:45;37.55;;;18.30;;
25213;SDS011;13160;51.834;4.706;2022-12-18T06:06:14;39.08;;;18.70;;
25213;SDS011;13160;51.834;4.706;2022-12-18T06:08:45;35.47;;;17.05;;
25213;SDS011;13160;51.834;4.706;2022-12-18T06:11:15;34.58;;;18.10;;
25213;SDS011;13160;51.834;4.706;2022-12-18T06:13:46;42.90;;;17.80;;
25213;SDS011;13160;51.834;4.706;2022-12-18T06:16:23;37.40;;;17.02;;
25213;SDS011;13160;51.834;4.706;2022-12-18T06:18:52;37.88;;;17.55;;
25213;SDS011;13160;51.834;4.706;2022-12-18T06:21:21;37.53;;;17.67;;
25213;SDS011;13160;51.834;4.706;2022-12-18T06:23:49;38.20;;;17.65;;
25213;SDS011;13160;51.834;4.706;2022-12-18T06:26:19;35.78;;;17.33;;
25213;SDS011;13160;51.834;4.706;2022-12-18T06:28:53;39.97;;;18.25;;
25213;SDS011;13160;51.834;4.706;2022-12-18T06:31:22;38.80;;;17.08;;
25213;SDS011;13160;51.834;4.706;2022-12-18T06:33:51;35.00;;;16.05;;
25213;SDS011;13160;51.834;4.706;2022-12-18T06:36:20;32.15;;;15.90;;
25213;SDS011;13160;51.834;4.706;2022-12-18T06:38:49;35.63;;;16.75;;
25213;SDS011;13160;51.834;4.706;2022-12-18T06:41:20;38.30;;;16.13;;
25213;SDS011;13160;51.834;4.706;2022-12-18T06:43:49;39.47;;;16.30;;
25213;SDS011;13160;51.834;4.706;2022-12-18T06:46:24;40.97;;;16.60;;
25213;SDS011;13160;51.834;4.706;2022-12-18T06:48:53;35.38;;;15.65;;
25213;SDS011;13160;51.834;4.706;2022-12-18T06:51:23;31.70;;;15.85;;
25213;SDS011;13160;51.834;4.706;2022-12-18T06:53:52;38.10;;;16.05;;
25213;SDS011;13160;51.834;4.706;2022-12-18T06:56:22;35.88;;;17.58;;
25213;SDS011;13160;51.834;4.706;2022-12-18T06:58:50;41.88;;;17.33;;
25213;SDS011;13160;51.834;4.706;2022-12-18T07:01:19;34.67;;;17.73;;
25213;SDS011;13160;51.834;4.706;2022-12-18T07:03:51;33.05;;;16.73;;
25213;SDS011;13160;51.834;4.706;2022-12-18T07:06:21;35.53;;;16.48;;
25213;SDS011;13160;51.834;4.706;2022-12-18T07:08:52;36.08;;;16.17;;
25213;SDS011;13160;51.834;4.706;2022-12-18T07:11:23;34.45;;;16.02;;
25213;SDS011;13160;51.834;4.706;2022-12-18T07:13:52;40.05;;;16.40;;
25213;SDS011;13160;51.834;4.706;2022-12-18T07:16:21;36.33;;;17.30;;
25213;SDS011;13160;51.834;4.706;2022-12-18T07:18:51;36.78;;;16.33;;
25213;SDS011;13160;51.834;4.706;2022-12-18T07:21:20;30.90;;;15.77;;
25213;SDS011;13160;51.834;4.706;2022-12-18T07:23:49;31.25;;;15.23;;
25213;SDS011;13160;51.834;4.706;2022-12-18T07:26:19;38.78;;;17.40;;
25213;SDS011;13160;51.834;4.706;2022-12-18T07:28:50;35.20;;;16.73;;
25213;SDS011;13160;51.834;4.706;2022-12-18T07:31:24;34.38;;;17.33;;
25213;SDS011;13160;51.834;4.706;2022-12-18T07:33:53;38.97;;;17.88;;
25213;SDS011;13160;51.834;4.706;2022-12-18T07:36:22;34.70;;;17.48;;
25213;SDS011;13160;51.834;4.706;2022-12-18T07:38:51;42.80;;;18.67;;
25213;SDS011;13160;51.834;4.706;2022-12-18T07:41:20;34.83;;;17.48;;
25213;SDS011;13160;51.834;4.706;2022-12-18T07:43:50;34.38;;;17.92;;
25213;SDS011;13160;51.834;4.706;2022-12-18T07:46:18;32.38;;;15.90;;
25213;SDS011;13160;51.834;4.706;2022-12-18T07:48:47;34.83;;;17.10;;
25213;SDS011;13160;51.834;4.706;2022-12-18T07:51:16;35.00;;;17.10;;
25213;SDS011;13160;51.834;4.706;2022-12-18T07:53:45;28.90;;;14.18;;
25213;SDS011;13160;51.834;4.706;2022-12-18T07:56:17;31.83;;;15.85;;
25213;SDS011;13160;51.834;4.706;2022-12-18T07:58:57;33.25;;;15.30;;
25213;SDS011;13160;51.834;4.706;2022-12-18T08:01:26;32.72;;;15.30;;
25213;SDS011;13160;51.834;4.706;2022-12-18T08:03:56;34.20;;;18.27;;
25213;SDS011;13160;51.834;4.706;2022-12-18T08:06:25;38.40;;;17.58;;
25213;SDS011;13160;51.834;4.706;2022-12-18T08:08:54;33.50;;;17.45;;
25213;SDS011;13160;51.834;4.706;2022-12-18T08:11:24;36.10;;;16.20;;
25213;SDS011;13160;51.834;4.706;2022-12-18T08:13:53;34.10;;;17.77;;
25213;SDS011;13160;51.834;4.706;2022-12-18T08:16:24;29.98;;;14.85;;
25213;SDS011;13160;51.834;4.706;2022-12-18T08:18:53;35.25;;;16.20;;
25213;SDS011;13160;51.834;4.706;2022-12-18T08:21:22;35.40;;;15.88;;
25213;SDS011;13160;51.834;4.706;2022-12-18T08:23:54;32.47;;;16.13;;
25213;SDS011;13160;51.834;4.706;2022-12-18T08:26:25;36.03;;;19.25;;
25213;SDS011;13160;51.834;4.706;2022-12-18T08:28:58;32.10;;;18.08;;
25213;SDS011;13160;51.834;4.706;2022-12-18T08:31:29;36.72;;;20.00;;
25213;SDS011;13160;51.834;4.706;2022-12-18T08:33:59;35.95;;;17.65;;
25213;SDS011;13160;51.834;4.706;2022-12-18T08:36:27;34.58;;;17.67;;
25213;SDS011;13160;51.834;4.706;2022-12-18T08:38:56;31.13;;;16.05;;
25213;SDS011;13160;51.834;4.706;2022-12-18T08:41:25;37.45;;;17.38;;
25213;SDS011;13160;51.834;4.706;2022-12-18T08:43:54;33.90;;;16.17;;
25213;SDS011;13160;51.834;4.706;2022-12-18T08:46:42;35.67;;;17.85;;
25213;SDS011;13160;51.834;4.706;2022-12-18T08:49:11;36.95;;;18.20;;
25213;SDS011;13160;51.834;4.706;2022-12-18T08:51:39;33.35;;;17.05;;
25213;SDS011;13160;51.834;4.706;2022-12-18T08:54:08;33.20;;;16.77;;
25213;SDS011;13160;51.834;4.706;2022-12-18T08:56:40;28.67;;;14.93;;
25213;SDS011;13160;51.834;4.706;2022-12-18T08:59:08;30.80;;;16.92;;
25213;SDS011;13160;51.834;4.706;2022-12-18T09:01:46;28.83;;;15.50;;
25213;SDS011;13160;51.834;4.706;2022-12-18T09:04:15;43.28;;;17.10;;
25213;SDS011;13160;51.834;4.706;2022-12-18T09:06:44;30.05;;;16.50;;
25213;SDS011;13160;51.834;4.706;2022-12-18T09:09:13;38.40;;;16.40;;
25213;SDS011;13160;51.834;4.706;2022-12-18T09:11:41;34.70;;;16.98;;
25213;SDS011;13160;51.834;4.706;2022-12-18T09:14:10;36.22;;;16.30;;
25213;SDS011;13160;51.834;4.706;2022-12-18T09:16:39;29.98;;;16.27;;
25213;SDS011;13160;51.834;4.706;2022-12-18T09:19:09;32.38;;;16.08;;
25213;SDS011;13160;51.834;4.706;2022-12-18T09:21:38;32.15;;;17.73;;
25213;SDS011;13160;51.834;4.706;2022-12-18T09:24:13;38.45;;;17.92;;
25213;SDS011;13160;51.834;4.706;2022-12-18T09:26:42;37.65;;;17.17;;
25213;SDS011;13160;51.834;4.706;2022-12-18T09:29:13;32.50;;;17.67;;
25213;SDS011;13160;51.834;4.706;2022-12-18T09:31:44;34.05;;;17.55;;
25213;SDS011;13160;51.834;4.706;2022-12-18T09:34:14;31.92;;;16.98;;
25213;SDS011;13160;51.834;4.706;2022-12-18T09:36:43;35.40;;;17.42;;
25213;SDS011;13160;51.834;4.706;2022-12-18T09:39:12;35.40;;;17.27;;
25213;SDS011;13160;51.834;4.706;2022-12-18T09:41:43;33.45;;;18.67;;
25213;SDS011;13160;51.834;4.706;2022-12-18T09:44:22;33.05;;;17.10;;
25213;SDS011;13160;51.834;4.706;2022-12-18T09:49:44;32.13;;;16.75;;
25213;SDS011;13160;51.834;4.706;2022-12-18T09:52:16;30.85;;;15.90;;
25213;SDS011;13160;51.834;4.706;2022-12-18T09:54:53;32.17;;;16.75;;
25213;SDS011;13160;51.834;4.706;2022-12-18T09:57:28;30.15;;;16.33;;
25213;SDS011;13160;51.834;4.706;2022-12-18T10:00:02;31.85;;;17.27;;
25213;SDS011;13160;51.834;4.706;2022-12-18T10:02:36;35.22;;;18.85;;
25213;SDS011;13160;51.834;4.706;2022-12-18T10:05:07;32.35;;;18.02;;
25213;SDS011;13160;51.834;4.706;2022-12-18T10:07:54;36.60;;;19.92;;
25213;SDS011;13160;51.834;4.706;2022-12-18T10:10:32;36.08;;;20.13;;
25213;SDS011;13160;51.834;4.706;2022-12-18T10:13:08;37.00;;;19.50;;
25213;SDS011;13160;51.834;4.706;2022-12-18T10:15:52;35.30;;;19.08;;
25213;SDS011;13160;51.834;4.706;2022-12-18T10:18:36;32.95;;;18.48;;
25213;SDS011;13160;51.834;4.706;2022-12-18T10:21:25;33.75;;;17.45;;
25213;SDS011;13160;51.834;4.706;2022-12-18T10:24:02;30.77;;;15.80;;
25213;SDS011;13160;51.834;4.706;2022-12-18T10:26:44;37.38;;;17.75;;
25213;SDS011;13160;51.834;4.706;2022-12-18T10:29:15;29.63;;;16.50;;
25213;SDS011;13160;51.834;4.706;2022-12-18T10:31:44;32.38;;;16.60;;
25213;SDS011;13160;51.834;4.706;2022-12-18T10:34:13;37.83;;;16.42;;
25213;SDS011;13160;51.834;4.706;2022-12-18T10:36:43;32.10;;;18.17;;
25213;SDS011;13160;51.834;4.706;2022-12-18T10:39:16;32.80;;;17.88;;
25213;SDS011;13160;51.834;4.706;2022-12-18T10:41:46;28.25;;;16.25;;
25213;SDS011;13160;51.834;4.706;2022-12-18T10:44:17;27.17;;;15.05;;
25213;SDS011;13160;51.834;4.706;2022-12-18T10:46:47;31.73;;;17.27;;
25213;SDS011;13160;51.834;4.706;2022-12-18T10:49:19;32.47;;;17.15;;
25213;SDS011;13160;51.834;4.706;2022-12-18T10:51:52;31.58;;;17.13;;
25213;SDS011;13160;51.834;4.706;2022-12-18T10:54:35;30.13;;;17.17;;
25213;SDS011;13160;51.834;4.706;2022-12-18T10:57:15;31.60;;;16.48;;
25213;SDS011;13160;51.834;4.706;2022-12-18T10:59:59;31.70;;;19.63;;
25213;SDS011;13160;51.834;4.706;2022-12-18T11:02:52;29.73;;;16.98;;
25213;SDS011;13160;51.834;4.706;2022-12-18T11:05:24;31.10;;;17.48;;
25213;SDS011;13160;51.834;4.706;2022-12-18T11:07:58;34.65;;;17.77;;
25213;SDS011;13160;51.834;4.706;2022-12-18T11:10:30;37.78;;;20.15;;
25213;SDS011;13160;51.834;4.706;2022-12-18T11:13:16;35.38;;;16.60;;
25213;SDS011;13160;51.834;4.706;2022-12-18T11:15:47;31.35;;;18.42;;
25213;SDS011;13160;51.834;4.706;2022-12-18T11:18:17;29.80;;;17.30;;
25213;SDS011;13160;51.834;4.706;2022-12-18T11:20:51;27.70;;;16.92;;
25213;SDS011;13160;51.834;4.706;2022-12-18T11:23:25;31.10;;;18.98;;
25213;SDS011;13160;51.834;4.706;2022-12-18T11:25:55;31.40;;;18.25;;
25213;SDS011;13160;51.834;4.706;2022-12-18T11:28:36;29.27;;;17.50;;
25213;SDS011;13160;51.834;4.706;2022-12-18T11:31:15;30.35;;;16.80;;
25213;SDS011;13160;51.834;4.706;2022-12-18T11:33:53;31.63;;;16.55;;
25213;SDS011;13160;51.834;4.706;2022-12-18T11:36:48;30.00;;;17.52;;
25213;SDS011;13160;51.834;4.706;2022-12-18T11:39:18;32.92;;;16.98;;
25213;SDS011;13160;51.834;4.706;2022-12-18T11:41:57;33.13;;;18.00;;
25213;SDS011;13160;51.834;4.706;2022-12-18T11:44:43;35.00;;;18.20;;
25213;SDS011;13160;51.834;4.706;2022-12-18T11:47:22;34.53;;;17.63;;
25213;SDS011;13160;51.834;4.706;2022-12-18T11:49:59;30.40;;;16.58;;
25213;SDS011;13160;51.834;4.706;2022-12-18T11:52:31;35.22;;;17.98;;
25213;SDS011;13160;51.834;4.706;2022-12-18T11:55:09;30.05;;;16.48;;
25213;SDS011;13160;51.834;4.706;2022-12-18T11:57:44;31.77;;;19.45;;
25213;SDS011;13160;51.834;4.706;2022-12-18T12:00:21;33.30;;;17.67;;
25213;SDS011;13160;51.834;4.706;2022-12-18T12:03:02;34.83;;;17.52;;
25213;SDS011;13160;51.834;4.706;2022-12-18T12:08:52;33.50;;;17.35;;
25213;SDS011;13160;51.834;4.706;2022-12-18T12:11:37;35.92;;;18.05;;
25213;SDS011;13160;51.834;4.706;2022-12-18T12:14:23;31.92;;;18.02;;
25213;SDS011;13160;51.834;4.706;2022-12-18T12:17:07;35.53;;;18.98;;
25213;SDS011;13160;51.834;4.706;2022-12-18T12:19:48;31.60;;;18.90;;
25213;SDS011;13160;51.834;4.706;2022-12-18T12:22:27;28.88;;;18.13;;
25213;SDS011;13160;51.834;4.706;2022-12-18T12:25:10;33.33;;;18.83;;
25213;SDS011;13160;51.834;4.706;2022-12-18T12:27:52;30.27;;;16.70;;
25213;SDS011;13160;51.834;4.706;2022-12-18T12:30:36;36.05;;;19.60;;
25213;SDS011;13160;51.834;4.706;2022-12-18T12:33:15;37.22;;;21.65;;
25213;SDS011;13160;51.834;4.706;2022-12-18T12:35:58;33.10;;;17.80;;
25213;SDS011;13160;51.834;4.706;2022-12-18T12:38:36;32.03;;;17.55;;
25213;SDS011;13160;51.834;4.706;2022-12-18T12:41:17;32.40;;;18.38;;
25213;SDS011;13160;51.834;4.706;2022-12-18T12:44:12;33.70;;;19.95;;
25213;SDS011;13160;51.834;4.706;2022-12-18T12:46:45;31.40;;;18.85;;
25213;SDS011;13160;51.834;4.706;2022-12-18T12:49:17;32.22;;;19.33;;
25213;SDS011;13160;51.834;4.706;2022-12-18T12:51:49;38.50;;;18.77;;
25213;SDS011;13160;51.834;4.706;2022-12-18T12:54:26;32.72;;;19.20;;
25213;SDS011;13160;51.834;4.706;2022-12-18T12:56:57;38.30;;;19.20;;
25213;SDS011;13160;51.834;4.706;2022-12-18T12:59:34;32.78;;;19.52;;
25213;SDS011;13160;51.834;4.706;2022-12-18T13:02:14;31.48;;;18.52;;
25213;SDS011;13160;51.834;4.706;2022-12-18T13:04:52;29.95;;;19.00;;
25213;SDS011;13160;51.834;4.706;2022-12-18T13:07:27;29.92;;;17.98;;
25213;SDS011;13160;51.834;4.706;2022-12-18T13:10:14;35.58;;;19.45;;
25213;SDS011;13160;51.834;4.706;2022-12-18T13:13:00;34.75;;;19.67;;
25213;SDS011;13160;51.834;4.706;2022-12-18T13:15:36;31.20;;;18.95;;
25213;SDS011;13160;51.834;4.706;2022-12-18T13:18:11;33.53;;;19.90;;
25213;SDS011;13160;51.834;4.706;2022-12-18T13:20:45;42.25;;;20.77;;
25213;SDS011;13160;51.834;4.706;2022-12-18T13:23:37;34.60;;;19.58;;
25213;SDS011;13160;51.834;4.706;2022-12-18T13:29:00;35.58;;;19.92;;
25213;SDS011;13160;51.834;4.706;2022-12-18T13:38:18;35.05;;;18.98;;
25213;SDS011;13160;51.834;4.706;2022-12-18T13:40:53;31.52;;;19.05;;
25213;SDS011;13160;51.834;4.706;2022-12-18T13:43:35;33.33;;;20.02;;
25213;SDS011;13160;51.834;4.706;2022-12-18T13:46:18;37.35;;;22.52;;
25213;SDS011;13160;51.834;4.706;2022-12-18T13:48:52;38.78;;;23.40;;
25213;SDS011;13160;51.834;4.706;2022-12-18T13:51:26;37.42;;;20.20;;
25213;SDS011;13160;51.834;4.706;2022-12-18T13:53:57;36.03;;;19.55;;
25213;SDS011;13160;51.834;4.706;2022-12-18T13:56:29;41.67;;;23.15;;
25213;SDS011;13160;51.834;4.706;2022-12-18T13:59:03;34.30;;;20.58;;
25213;SDS011;13160;51.834;4.706;2022-12-18T14:01:50;35.05;;;19.38;;
25213;SDS011;13160;51.834;4.706;2022-12-18T14:04:25;35.78;;;20.52;;
25213;SDS011;13160;51.834;4.706;2022-12-18T14:06:56;37.03;;;20.38;;
25213;SDS011;13160;51.834;4.706;2022-12-18T14:09:30;35.78;;;20.73;;
25213;SDS011;13160;51.834;4.706;2022-12-18T14:12:06;36.45;;;19.92;;
25213;SDS011;13160;51.834;4.706;2022-12-18T14:14:59;34.80;;;20.08;;
25213;SDS011;13160;51.834;4.706;2022-12-18T14:17:28;36.40;;;20.77;;
25213;SDS011;13160;51.834;4.706;2022-12-18T14:20:01;36.13;;;22.08;;
25213;SDS011;13160;51.834;4.706;2022-12-18T14:22:31;34.40;;;21.30;;
25213;SDS011;13160;51.834;4.706;2022-12-18T14:25:10;36.90;;;22.17;;
25213;SDS011;13160;51.834;4.706;2022-12-18T14:27:46;35.92;;;21.90;;
25213;SDS011;13160;51.834;4.706;2022-12-18T14:30:23;37.42;;;22.23;;
25213;SDS011;13160;51.834;4.706;2022-12-18T14:33:01;40.78;;;23.58;;
25213;SDS011;13160;51.834;4.706;2022-12-18T14:35:33;35.92;;;21.98;;
25213;SDS011;13160;51.834;4.706;2022-12-18T14:38:10;40.08;;;25.38;;
25213;SDS011;13160;51.834;4.706;2022-12-18T14:40:51;36.30;;;22.10;;
25213;SDS011;13160;51.834;4.706;2022-12-18T14:43:27;39.05;;;23.17;;
25213;SDS011;13160;51.834;4.706;2022-12-18T14:45:59;40.05;;;23.05;;
25213;SDS011;13160;51.834;4.706;2022-12-18T14:48:35;35.03;;;22.10;;
25213;SDS011;13160;51.834;4.706;2022-12-18T14:51:14;41.20;;;23.35;;
25213;SDS011;13160;51.834;4.706;2022-12-18T14:53:46;43.78;;;24.42;;
25213;SDS011;13160;51.834;4.706;2022-12-18T14:56:21;39.97;;;23.38;;
25213;SDS011;13160;51.834;4.706;2022-12-18T14:59:04;51.75;;;32.80;;
25213;SDS011;13160;51.834;4.706;2022-12-18T15:02:27;40.78;;;24.38;;
25213;SDS011;13160;51.834;4.706;2022-12-18T15:05:31;38.30;;;24.02;;
25213;SDS011;13160;51.834;4.706;2022-12-18T15:08:01;42.55;;;25.73;;
25213;SDS011;13160;51.834;4.706;2022-12-18T15:10:31;38.75;;;22.98;;